sensor_id;sensor_type;location;lat;lon;timestamp;pressure;altitude;pressure_sealevel;temperature;humidity
64139;BME280;50435;43.700;-79.318;2022-07-23T00:02:12;99733.12;;;24.31;44.10
64139;BME280;50435;43.700;-79.318;2022-07-23T00:04:39;99730.60;;;24.64;44.17
64139;BME280;50435;43.700;-79.318;2022-07-23T00:07:07;99731.77;;;24.61;44.46
64139;BME280;50435;43.700;-79.318;2022-07-23T00:09:34;99736.52;;;24.32;44.66
64139;BME280;50435;43.700;-79.318;2022-07-23T00:12:01;99739.27;;;24.27;44.62
64139;BME280;50435;43.700;-79.318;2022-07-23T00:14:29;99740.11;;;24.19;44.60
64139;BME280;50435;43.700;-79.318;2022-07-23T00:16:56;99744.11;;;24.11;44.98
64139;BME280;50435;43.700;-79.318;2022-07-23T00:19:23;99747.58;;;24.03;45.18
64139;BME280;50435;43.700;-79.318;2022-07-23T00:21:51;99754.86;;;22.98;45.58
64139;BME280;50435;43.700;-79.318;2022-07-23T00:24:18;99756.13;;;23.91;45.72
64139;BME280;50435;43.700;-79.318;2022-07-23T00:26:45;99755.32;;;23.32;45.63
64139;BME280;50435;43.700;-79.318;2022-07-23T00:29:13;99758.71;;;23.96;45.50
64139;BME280;50435;43.700;-79.318;2022-07-23T00:31:40;99761.29;;;23.89;45.65
64139;BME280;50435;43.700;-79.318;2022-07-23T00:34:08;99763.06;;;23.60;45.79
64139;BME280;50435;43.700;-79.318;2022-07-23T00:36:36;99763.36;;;23.74;46.25
64139;BME280;50435;43.700;-79.318;2022-07-23T00:39:03;99763.25;;;23.69;46.40
64139;BME280;50435;43.700;-79.318;2022-07-23T00:41:31;99765.00;;;23.88;46.70
64139;BME280;50435;43.700;-79.318;2022-07-23T00:44:14;99769.14;;;23.32;47.05
64139;BME280;50435;43.700;-79.318;2022-07-23T00:46:46;99782.11;;;23.45;47.58
64139;BME280;50435;43.700;-79.318;2022-07-23T00:49:14;99791.21;;;23.36;47.65
64139;BME280;50435;43.700;-79.318;2022-07-23T00:51:41;99792.35;;;23.55;47.67
64139;BME280;50435;43.700;-79.318;2022-07-23T00:54:10;99796.74;;;23.22;47.87
64139;BME280;50435;43.700;-79.318;2022-07-23T00:56:38;99800.34;;;23.42;47.91
64139;BME280;50435;43.700;-79.318;2022-07-23T00:59:07;99800.98;;;23.36;48.08
64139;BME280;50435;43.700;-79.318;2022-07-23T01:01:36;99807.57;;;23.29;48.14
64139;BME280;50435;43.700;-79.318;2022-07-23T01:04:03;99813.48;;;23.28;48.02
64139;BME280;50435;43.700;-79.318;2022-07-23T01:06:35;99814.79;;;23.21;48.24
64139;BME280;50435;43.700;-79.318;2022-07-23T01:09:04;99819.50;;;23.16;48.59
64139;BME280;50435;43.700;-79.318;2022-07-23T01:11:33;99822.22;;;22.85;48.60
64139;BME280;50435;43.700;-79.318;2022-07-23T01:14:09;99820.29;;;23.05;48.88
64139;BME280;50435;43.700;-79.318;2022-07-23T01:16:36;99827.01;;;23.11;48.74
64139;BME280;50435;43.700;-79.318;2022-07-23T01:19:03;99833.45;;;22.62;48.95
64139;BME280;50435;43.700;-79.318;2022-07-23T01:21:31;99833.52;;;22.78;49.00
64139;BME280;50435;43.700;-79.318;2022-07-23T01:23:58;99837.17;;;22.22;49.41
64139;BME280;50435;43.700;-79.318;2022-07-23T01:26:25;99839.79;;;22.93;49.48
64139;BME280;50435;43.700;-79.318;2022-07-23T01:28:53;99839.39;;;21.22;49.62
64139;BME280;50435;43.700;-79.318;2022-07-23T01:31:20;99847.73;;;22.52;49.78
64139;BME280;50435;43.700;-79.318;2022-07-23T01:33:48;99858.60;;;22.79;49.85
64139;BME280;50435;43.700;-79.318;2022-07-23T01:36:16;99860.91;;;22.72;50.17
64139;BME280;50435;43.700;-79.318;2022-07-23T01:38:44;99864.47;;;22.17;50.31
64139;BME280;50435;43.700;-79.318;2022-07-23T01:41:12;99868.96;;;22.37;50.33
64139;BME280;50435;43.700;-79.318;2022-07-23T01:43:39;99872.19;;;22.76;50.52
64139;BME280;50435;43.700;-79.318;2022-07-23T01:46:06;99874.43;;;22.03;50.63
64139;BME280;50435;43.700;-79.318;2022-07-23T01:48:34;99880.25;;;22.37;51.01
64139;BME280;50435;43.700;-79.318;2022-07-23T01:51:01;99882.67;;;20.62;51.37
64139;BME280;50435;43.700;-79.318;2022-07-23T01:53:29;99882.49;;;22.53;51.50
64139;BME280;50435;43.700;-79.318;2022-07-23T01:55:56;99890.05;;;22.25;51.73
64139;BME280;50435;43.700;-79.318;2022-07-23T01:58:23;99893.13;;;22.17;51.93
64139;BME280;50435;43.700;-79.318;2022-07-23T02:00:51;99891.21;;;22.51;52.24
64139;BME280;50435;43.700;-79.318;2022-07-23T02:03:18;99894.58;;;21.55;52.41
64139;BME280;50435;43.700;-79.318;2022-07-23T02:05:46;99898.05;;;22.16;52.59
64139;BME280;50435;43.700;-79.318;2022-07-23T02:08:13;99900.30;;;21.86;52.87
64139;BME280;50435;43.700;-79.318;2022-07-23T02:10:41;99902.71;;;20.76;53.03
64139;BME280;50435;43.700;-79.318;2022-07-23T02:13:08;99900.86;;;21.20;53.15
64139;BME280;50435;43.700;-79.318;2022-07-23T02:15:35;99901.09;;;21.87;53.24
64139;BME280;50435;43.700;-79.318;2022-07-23T02:18:03;99903.12;;;21.25;53.51
64139;BME280;50435;43.700;-79.318;2022-07-23T02:20:31;99907.64;;;21.75;53.52
64139;BME280;50435;43.700;-79.318;2022-07-23T02:22:58;99906.10;;;20.69;53.83
64139;BME280;50435;43.700;-79.318;2022-07-23T02:25:25;99904.81;;;21.79;53.94
64139;BME280;50435;43.700;-79.318;2022-07-23T02:27:53;99910.43;;;21.73;54.07
64139;BME280;50435;43.700;-79.318;2022-07-23T02:30:20;99911.93;;;21.19;54.32
64139;BME280;50435;43.700;-79.318;2022-07-23T02:32:48;99913.60;;;21.57;54.45
64139;BME280;50435;43.700;-79.318;2022-07-23T02:35:15;99914.41;;;20.10;54.54
64139;BME280;50435;43.700;-79.318;2022-07-23T02:37:43;99914.00;;;20.06;54.68
64139;BME280;50435;43.700;-79.318;2022-07-23T02:40:11;99913.86;;;20.90;54.95
64139;BME280;50435;43.700;-79.318;2022-07-23T02:42:39;99915.22;;;21.07;55.01
64139;BME280;50435;43.700;-79.318;2022-07-23T02:45:07;99912.50;;;21.55;55.10
64139;BME280;50435;43.700;-79.318;2022-07-23T02:47:35;99916.34;;;21.27;55.06
64139;BME280;50435;43.700;-79.318;2022-07-23T02:50:04;99910.22;;;20.72;55.28
64139;BME280;50435;43.700;-79.318;2022-07-23T02:52:32;99907.46;;;21.10;55.40
64139;BME280;50435;43.700;-79.318;2022-07-23T02:54:59;99904.14;;;21.06;55.49
64139;BME280;50435;43.700;-79.318;2022-07-23T02:57:27;99901.12;;;20.59;55.52
64139;BME280;50435;43.700;-79.318;2022-07-23T02:59:54;99900.76;;;20.97;55.59
64139;BME280;50435;43.700;-79.318;2022-07-23T03:02:21;99906.69;;;20.93;55.68
64139;BME280;50435;43.700;-79.318;2022-07-23T03:04:49;99907.71;;;19.46;55.74
64139;BME280;50435;43.700;-79.318;2022-07-23T03:07:17;99913.24;;;19.31;56.06
64139;BME280;50435;43.700;-79.318;2022-07-23T03:09:44;99915.14;;;20.93;56.19
64139;BME280;50435;43.700;-79.318;2022-07-23T03:12:12;99914.68;;;20.92;56.17
64139;BME280;50435;43.700;-79.318;2022-07-23T03:14:40;99916.24;;;20.60;56.31
64139;BME280;50435;43.700;-79.318;2022-07-23T03:17:08;99912.94;;;20.54;56.39
64139;BME280;50435;43.700;-79.318;2022-07-23T03:19:35;99911.90;;;20.29;56.45
64139;BME280;50435;43.700;-79.318;2022-07-23T03:22:02;99916.90;;;19.79;56.46
64139;BME280;50435;43.700;-79.318;2022-07-23T03:24:30;99917.42;;;19.77;56.49
64139;BME280;50435;43.700;-79.318;2022-07-23T03:26:57;99916.32;;;19.50;56.54
64139;BME280;50435;43.700;-79.318;2022-07-23T03:29:24;99918.34;;;18.94;56.67
64139;BME280;50435;43.700;-79.318;2022-07-23T03:31:52;99918.64;;;20.08;56.77
64139;BME280;50435;43.700;-79.318;2022-07-23T03:34:19;99923.32;;;18.79;56.97
64139;BME280;50435;43.700;-79.318;2022-07-23T03:36:47;99924.10;;;20.43;57.04
64139;BME280;50435;43.700;-79.318;2022-07-23T03:39:14;99925.60;;;20.54;57.30
64139;BME280;50435;43.700;-79.318;2022-07-23T03:41:42;99924.51;;;20.01;57.36
64139;BME280;50435;43.700;-79.318;2022-07-23T03:44:09;99930.03;;;20.42;57.62
64139;BME280;50435;43.700;-79.318;2022-07-23T03:46:37;99928.25;;;19.89;57.70
64139;BME280;50435;43.700;-79.318;2022-07-23T03:49:04;99930.73;;;19.39;57.79
64139;BME280;50435;43.700;-79.318;2022-07-23T03:51:31;99927.35;;;20.05;57.90
64139;BME280;50435;43.700;-79.318;2022-07-23T03:53:59;99930.61;;;20.27;57.88
64139;BME280;50435;43.700;-79.318;2022-07-23T03:56:26;99932.64;;;20.20;57.95
64139;BME280;50435;43.700;-79.318;2022-07-23T03:58:54;99934.26;;;20.22;57.89
64139;BME280;50435;43.700;-79.318;2022-07-23T04:01:21;99933.86;;;20.62;58.12
64139;BME280;50435;43.700;-79.318;2022-07-23T04:03:48;99934.56;;;20.15;58.06
64139;BME280;50435;43.700;-79.318;2022-07-23T04:06:16;99936.03;;;20.33;58.25
64139;BME280;50435;43.700;-79.318;2022-07-23T04:08:44;99932.27;;;20.02;58.36
64139;BME280;50435;43.700;-79.318;2022-07-23T04:11:12;99933.36;;;18.56;58.43
64139;BME280;50435;43.700;-79.318;2022-07-23T04:13:40;99932.23;;;19.44;58.52
64139;BME280;50435;43.700;-79.318;2022-07-23T04:16:07;99935.12;;;19.84;58.76
64139;BME280;50435;43.700;-79.318;2022-07-23T04:18:35;99936.36;;;19.30;58.82
64139;BME280;50435;43.700;-79.318;2022-07-23T04:21:03;99935.88;;;19.74;58.83
64139;BME280;50435;43.700;-79.318;2022-07-23T04:23:30;99936.86;;;19.70;59.01
64139;BME280;50435;43.700;-79.318;2022-07-23T04:25:57;99935.74;;;18.81;58.85
64139;BME280;50435;43.700;-79.318;2022-07-23T04:28:25;99934.55;;;19.53;58.84
64139;BME280;50435;43.700;-79.318;2022-07-23T04:30:52;99931.01;;;19.69;58.95
64139;BME280;50435;43.700;-79.318;2022-07-23T04:33:19;99934.89;;;19.69;58.93
64139;BME280;50435;43.700;-79.318;2022-07-23T04:35:47;99936.87;;;19.60;59.08
64139;BME280;50435;43.700;-79.318;2022-07-23T04:38:14;99937.72;;;19.63;59.11
64139;BME280;50435;43.700;-79.318;2022-07-23T04:40:42;99939.32;;;18.36;59.20
64139;BME280;50435;43.700;-79.318;2022-07-23T04:43:09;99941.52;;;18.81;59.28
64139;BME280;50435;43.700;-79.318;2022-07-23T04:45:37;99946.34;;;18.26;59.42
64139;BME280;50435;43.700;-79.318;2022-07-23T04:48:05;99947.19;;;19.48;59.34
64139;BME280;50435;43.700;-79.318;2022-07-23T04:50:32;99945.62;;;19.41;59.50
64139;BME280;50435;43.700;-79.318;2022-07-23T04:52:59;99945.85;;;19.35;59.64
64139;BME280;50435;43.700;-79.318;2022-07-23T04:55:27;99945.61;;;19.71;59.89
64139;BME280;50435;43.700;-79.318;2022-07-23T04:57:54;99942.79;;;19.23;59.84
64139;BME280;50435;43.700;-79.318;2022-07-23T05:00:22;99942.85;;;19.65;60.07
64139;BME280;50435;43.700;-79.318;2022-07-23T05:02:49;99942.76;;;18.25;59.98
64139;BME280;50435;43.700;-79.318;2022-07-23T05:05:16;99940.41;;;18.23;60.04
64139;BME280;50435;43.700;-79.318;2022-07-23T05:07:44;99938.20;;;17.89;60.23
64139;BME280;50435;43.700;-79.318;2022-07-23T05:10:11;99935.94;;;19.52;60.32
64139;BME280;50435;43.700;-79.318;2022-07-23T05:12:39;99936.52;;;19.02;60.36
64139;BME280;50435;43.700;-79.318;2022-07-23T05:15:07;99939.38;;;19.45;60.44
64139;BME280;50435;43.700;-79.318;2022-07-23T05:17:35;99938.75;;;18.49;60.42
64139;BME280;50435;43.700;-79.318;2022-07-23T05:20:02;99941.50;;;19.43;60.51
64139;BME280;50435;43.700;-79.318;2022-07-23T05:22:29;99941.27;;;17.53;60.48
64139;BME280;50435;43.700;-79.318;2022-07-23T05:24:56;99941.48;;;17.96;60.61
64139;BME280;50435;43.700;-79.318;2022-07-23T05:27:24;99942.88;;;19.30;60.82
64139;BME280;50435;43.700;-79.318;2022-07-23T05:29:51;99940.36;;;19.39;61.12
64139;BME280;50435;43.700;-79.318;2022-07-23T05:32:18;99938.20;;;18.99;61.06
64139;BME280;50435;43.700;-79.318;2022-07-23T05:34:45;99937.06;;;19.10;61.24
64139;BME280;50435;43.700;-79.318;2022-07-23T05:37:13;99936.89;;;19.09;61.30
64139;BME280;50435;43.700;-79.318;2022-07-23T05:39:40;99935.08;;;19.26;61.44
64139;BME280;50435;43.700;-79.318;2022-07-23T05:42:08;99931.64;;;18.59;61.34
64139;BME280;50435;43.700;-79.318;2022-07-23T05:44:36;99931.95;;;19.21;61.53
64139;BME280;50435;43.700;-79.318;2022-07-23T05:47:03;99938.91;;;18.48;61.52
64139;BME280;50435;43.700;-79.318;2022-07-23T05:49:31;99937.93;;;19.12;61.74
64139;BME280;50435;43.700;-79.318;2022-07-23T05:51:58;99938.84;;;17.88;61.84
64139;BME280;50435;43.700;-79.318;2022-07-23T05:54:29;99943.99;;;17.50;61.69
64139;BME280;50435;43.700;-79.318;2022-07-23T05:56:56;99945.11;;;18.85;61.78
64139;BME280;50435;43.700;-79.318;2022-07-23T05:59:23;99944.34;;;19.02;61.91
64139;BME280;50435;43.700;-79.318;2022-07-23T06:01:50;99942.67;;;18.94;62.12
64139;BME280;50435;43.700;-79.318;2022-07-23T06:04:18;99940.70;;;18.58;62.00
64139;BME280;50435;43.700;-79.318;2022-07-23T06:06:45;99939.26;;;18.75;62.13
64139;BME280;50435;43.700;-79.318;2022-07-23T06:09:13;99940.81;;;18.66;62.29
64139;BME280;50435;43.700;-79.318;2022-07-23T06:11:41;99939.23;;;18.71;62.21
64139;BME280;50435;43.700;-79.318;2022-07-23T06:14:09;99937.85;;;17.59;62.60
64139;BME280;50435;43.700;-79.318;2022-07-23T06:16:37;99939.81;;;17.54;62.68
64139;BME280;50435;43.700;-79.318;2022-07-23T06:19:04;99937.61;;;18.59;62.58
64139;BME280;50435;43.700;-79.318;2022-07-23T06:21:31;99933.77;;;18.50;62.76
64139;BME280;50435;43.700;-79.318;2022-07-23T06:23:59;99939.78;;;18.70;62.85
64139;BME280;50435;43.700;-79.318;2022-07-23T06:26:26;99944.75;;;18.45;62.88
64139;BME280;50435;43.700;-79.318;2022-07-23T06:28:54;99940.85;;;18.50;62.70
64139;BME280;50435;43.700;-79.318;2022-07-23T06:31:22;99942.29;;;18.37;63.09
64139;BME280;50435;43.700;-79.318;2022-07-23T06:33:49;99943.60;;;18.40;62.99
64139;BME280;50435;43.700;-79.318;2022-07-23T06:36:16;99941.86;;;17.88;63.03
64139;BME280;50435;43.700;-79.318;2022-07-23T06:38:43;99944.61;;;18.50;63.24
64139;BME280;50435;43.700;-79.318;2022-07-23T06:41:11;99941.99;;;17.25;63.40
64139;BME280;50435;43.700;-79.318;2022-07-23T06:43:38;99941.13;;;17.77;63.34
64139;BME280;50435;43.700;-79.318;2022-07-23T06:46:05;99943.67;;;17.25;63.51
64139;BME280;50435;43.700;-79.318;2022-07-23T06:48:33;99943.08;;;18.16;63.58
64139;BME280;50435;43.700;-79.318;2022-07-23T06:51:00;99939.55;;;18.56;63.83
64139;BME280;50435;43.700;-79.318;2022-07-23T06:53:28;99946.20;;;18.10;63.71
64139;BME280;50435;43.700;-79.318;2022-07-23T06:55:55;99948.12;;;17.61;63.73
64139;BME280;50435;43.700;-79.318;2022-07-23T06:58:23;99948.63;;;17.87;63.77
64139;BME280;50435;43.700;-79.318;2022-07-23T07:00:50;99950.70;;;16.64;63.86
64139;BME280;50435;43.700;-79.318;2022-07-23T07:03:18;99956.71;;;17.01;63.94
64139;BME280;50435;43.700;-79.318;2022-07-23T07:05:46;99960.19;;;17.49;64.02
64139;BME280;50435;43.700;-79.318;2022-07-23T07:08:13;99959.05;;;17.73;64.13
64139;BME280;50435;43.700;-79.318;2022-07-23T07:10:41;99954.95;;;17.69;64.17
64139;BME280;50435;43.700;-79.318;2022-07-23T07:13:09;99955.94;;;17.94;64.05
64139;BME280;50435;43.700;-79.318;2022-07-23T07:15:36;99955.00;;;18.37;64.22
64139;BME280;50435;43.700;-79.318;2022-07-23T07:18:04;99955.70;;;18.35;64.24
64139;BME280;50435;43.700;-79.318;2022-07-23T07:20:31;99957.71;;;18.11;64.17
64139;BME280;50435;43.700;-79.318;2022-07-23T07:22:59;99955.79;;;17.33;64.42
64139;BME280;50435;43.700;-79.318;2022-07-23T07:25:27;99953.20;;;16.85;64.40
64139;BME280;50435;43.700;-79.318;2022-07-23T07:27:54;99947.75;;;16.87;64.42
64139;BME280;50435;43.700;-79.318;2022-07-23T07:30:22;99955.88;;;17.29;64.52
64139;BME280;50435;43.700;-79.318;2022-07-23T07:32:49;99956.23;;;18.27;64.54
64139;BME280;50435;43.700;-79.318;2022-07-23T07:35:17;99954.66;;;16.77;64.56
64139;BME280;50435;43.700;-79.318;2022-07-23T07:37:44;99957.89;;;18.00;64.50
64139;BME280;50435;43.700;-79.318;2022-07-23T07:40:12;99963.21;;;17.65;64.29
64139;BME280;50435;43.700;-79.318;2022-07-23T07:42:45;99973.90;;;17.84;64.39
64139;BME280;50435;43.700;-79.318;2022-07-23T07:45:13;99973.85;;;18.16;64.75
64139;BME280;50435;43.700;-79.318;2022-07-23T07:47:40;99971.20;;;17.73;64.62
64139;BME280;50435;43.700;-79.318;2022-07-23T07:50:09;99969.17;;;17.21;64.67
64139;BME280;50435;43.700;-79.318;2022-07-23T07:52:36;99968.96;;;17.49;64.64
64139;BME280;50435;43.700;-79.318;2022-07-23T07:55:05;99965.53;;;18.20;64.59
64139;BME280;50435;43.700;-79.318;2022-07-23T07:57:33;99966.34;;;17.66;64.66
64139;BME280;50435;43.700;-79.318;2022-07-23T08:00:01;99964.93;;;18.37;64.60
64139;BME280;50435;43.700;-79.318;2022-07-23T08:02:40;99958.33;;;16.69;64.50
64139;BME280;50435;43.700;-79.318;2022-07-23T08:05:08;99954.86;;;18.19;64.31
64139;BME280;50435;43.700;-79.318;2022-07-23T08:07:35;99949.75;;;17.18;64.39
64139;BME280;50435;43.700;-79.318;2022-07-23T08:10:03;99951.26;;;18.37;64.38
64139;BME280;50435;43.700;-79.318;2022-07-23T08:12:38;99945.57;;;17.90;64.30
64139;BME280;50435;43.700;-79.318;2022-07-23T08:15:07;99949.33;;;16.69;64.30
64139;BME280;50435;43.700;-79.318;2022-07-23T08:17:35;99948.71;;;17.13;64.40
64139;BME280;50435;43.700;-79.318;2022-07-23T08:20:02;99952.78;;;17.27;64.10
64139;BME280;50435;43.700;-79.318;2022-07-23T08:22:44;99952.41;;;18.20;64.20
64139;BME280;50435;43.700;-79.318;2022-07-23T08:25:12;99948.55;;;18.13;64.43
64139;BME280;50435;43.700;-79.318;2022-07-23T08:27:40;99943.17;;;17.60;64.54
64139;BME280;50435;43.700;-79.318;2022-07-23T08:30:08;99948.38;;;16.93;64.47
64139;BME280;50435;43.700;-79.318;2022-07-23T08:32:48;99945.43;;;17.08;64.74
64139;BME280;50435;43.700;-79.318;2022-07-23T08:35:16;99943.96;;;17.99;64.94
64139;BME280;50435;43.700;-79.318;2022-07-23T08:37:43;99943.97;;;17.48;65.06
64139;BME280;50435;43.700;-79.318;2022-07-23T08:40:13;99943.64;;;17.98;65.03
64139;BME280;50435;43.700;-79.318;2022-07-23T08:42:40;99945.83;;;17.50;65.07
64139;BME280;50435;43.700;-79.318;2022-07-23T08:45:09;99945.32;;;17.30;65.06
64139;BME280;50435;43.700;-79.318;2022-07-23T08:47:37;99941.38;;;17.92;65.32
64139;BME280;50435;43.700;-79.318;2022-07-23T08:50:07;99948.45;;;17.92;65.33
64139;BME280;50435;43.700;-79.318;2022-07-23T08:52:36;99947.54;;;16.26;65.35
64139;BME280;50435;43.700;-79.318;2022-07-23T08:55:05;99952.29;;;17.66;65.42
64139;BME280;50435;43.700;-79.318;2022-07-23T08:57:33;99952.72;;;17.62;65.49
64139;BME280;50435;43.700;-79.318;2022-07-23T09:00:00;99952.72;;;17.86;65.57
64139;BME280;50435;43.700;-79.318;2022-07-23T09:02:28;99954.19;;;17.79;65.72
64139;BME280;50435;43.700;-79.318;2022-07-23T09:04:55;99953.31;;;17.63;65.51
64139;BME280;50435;43.700;-79.318;2022-07-23T09:07:23;99956.27;;;16.35;65.75
64139;BME280;50435;43.700;-79.318;2022-07-23T09:10:05;99961.02;;;17.28;65.85
64139;BME280;50435;43.700;-79.318;2022-07-23T09:12:33;99966.66;;;17.07;65.86
64139;BME280;50435;43.700;-79.318;2022-07-23T09:15:05;99970.58;;;16.26;65.97
64139;BME280;50435;43.700;-79.318;2022-07-23T09:17:38;99979.15;;;17.93;66.10
64139;BME280;50435;43.700;-79.318;2022-07-23T09:20:11;99980.90;;;17.65;66.20
64139;BME280;50435;43.700;-79.318;2022-07-23T09:22:44;99980.78;;;17.22;66.09
64139;BME280;50435;43.700;-79.318;2022-07-23T09:25:16;99976.02;;;17.64;66.22
64139;BME280;50435;43.700;-79.318;2022-07-23T09:27:49;99976.67;;;17.64;66.21
64139;BME280;50435;43.700;-79.318;2022-07-23T09:30:17;99981.87;;;17.87;66.24
64139;BME280;50435;43.700;-79.318;2022-07-23T09:32:44;99985.59;;;16.13;66.31
64139;BME280;50435;43.700;-79.318;2022-07-23T09:35:44;99984.04;;;16.43;66.24
64139;BME280;50435;43.700;-79.318;2022-07-23T09:38:12;99990.62;;;17.81;66.40
64139;BME280;50435;43.700;-79.318;2022-07-23T09:40:40;99997.71;;;17.53;66.52
64139;BME280;50435;43.700;-79.318;2022-07-23T09:43:08;100003.54;;;17.53;66.47
64139;BME280;50435;43.700;-79.318;2022-07-23T09:45:35;100006.70;;;17.07;66.46
64139;BME280;50435;43.700;-79.318;2022-07-23T09:48:16;100003.62;;;17.56;66.44
64139;BME280;50435;43.700;-79.318;2022-07-23T09:50:44;100003.80;;;16.54;66.51
64139;BME280;50435;43.700;-79.318;2022-07-23T09:53:24;100003.79;;;17.58;66.45
64139;BME280;50435;43.700;-79.318;2022-07-23T09:55:54;100006.79;;;16.23;66.80
64139;BME280;50435;43.700;-79.318;2022-07-23T09:58:26;100010.72;;;17.68;66.75
64139;BME280;50435;43.700;-79.318;2022-07-23T10:00:54;100013.23;;;15.60;66.65
64139;BME280;50435;43.700;-79.318;2022-07-23T10:03:23;100009.44;;;16.79;66.60
64139;BME280;50435;43.700;-79.318;2022-07-23T10:05:52;100009.00;;;16.03;66.60
64139;BME280;50435;43.700;-79.318;2022-07-23T10:08:20;100010.40;;;17.42;66.75
64139;BME280;50435;43.700;-79.318;2022-07-23T10:10:50;100011.29;;;17.41;66.86
64139;BME280;50435;43.700;-79.318;2022-07-23T10:13:18;100009.28;;;17.33;67.10
64139;BME280;50435;43.700;-79.318;2022-07-23T10:15:45;100005.94;;;16.90;66.85
64139;BME280;50435;43.700;-79.318;2022-07-23T10:18:14;100002.56;;;15.87;67.08
64139;BME280;50435;43.700;-79.318;2022-07-23T10:20:42;100003.27;;;16.34;67.10
64139;BME280;50435;43.700;-79.318;2022-07-23T10:23:16;100001.60;;;16.78;67.22
64139;BME280;50435;43.700;-79.318;2022-07-23T10:25:51;99999.56;;;16.31;67.16
64139;BME280;50435;43.700;-79.318;2022-07-23T10:28:40;100001.92;;;17.25;67.29
64139;BME280;50435;43.700;-79.318;2022-07-23T10:31:17;100007.61;;;16.27;67.36
64139;BME280;50435;43.700;-79.318;2022-07-23T10:33:56;100008.97;;;17.23;67.42
64139;BME280;50435;43.700;-79.318;2022-07-23T10:36:35;100013.04;;;17.14;66.93
64139;BME280;50435;43.700;-79.318;2022-07-23T10:39:17;100021.89;;;17.28;67.16
64139;BME280;50435;43.700;-79.318;2022-07-23T10:41:46;100024.82;;;17.75;67.23
64139;BME280;50435;43.700;-79.318;2022-07-23T10:44:15;100022.81;;;17.23;67.39
64139;BME280;50435;43.700;-79.318;2022-07-23T10:47:00;100028.88;;;17.38;67.55
64139;BME280;50435;43.700;-79.318;2022-07-23T10:49:30;100027.26;;;17.42;67.53
64139;BME280;50435;43.700;-79.318;2022-07-23T10:52:30;100026.83;;;16.21;67.54
64139;BME280;50435;43.700;-79.318;2022-07-23T10:55:40;100029.47;;;16.72;67.46
64139;BME280;50435;43.700;-79.318;2022-07-23T10:58:08;100026.27;;;17.25;67.45
64139;BME280;50435;43.700;-79.318;2022-07-23T11:00:37;100030.77;;;15.91;67.92
64139;BME280;50435;43.700;-79.318;2022-07-23T11:03:31;100036.45;;;17.41;67.86
64139;BME280;50435;43.700;-79.318;2022-07-23T11:05:58;100042.23;;;17.62;68.03
64139;BME280;50435;43.700;-79.318;2022-07-23T11:08:25;100043.56;;;17.08;68.25
64139;BME280;50435;43.700;-79.318;2022-07-23T11:10:56;100047.34;;;16.65;68.19
64139;BME280;50435;43.700;-79.318;2022-07-23T11:13:44;100050.71;;;16.95;68.05
64139;BME280;50435;43.700;-79.318;2022-07-23T11:16:15;100050.39;;;16.24;68.39
64139;BME280;50435;43.700;-79.318;2022-07-23T11:19:04;100045.51;;;17.47;68.34
64139;BME280;50435;43.700;-79.318;2022-07-23T11:21:49;100048.50;;;17.36;68.18
64139;BME280;50435;43.700;-79.318;2022-07-23T11:24:19;100051.92;;;17.50;68.59
64139;BME280;50435;43.700;-79.318;2022-07-23T11:26:49;100056.52;;;16.81;68.52
64139;BME280;50435;43.700;-79.318;2022-07-23T11:29:50;100058.03;;;17.36;68.50
64139;BME280;50435;43.700;-79.318;2022-07-23T11:32:30;100055.71;;;17.41;68.45
64139;BME280;50435;43.700;-79.318;2022-07-23T11:34:57;100051.79;;;17.62;68.49
64139;BME280;50435;43.700;-79.318;2022-07-23T11:37:32;100042.37;;;16.46;68.43
64139;BME280;50435;43.700;-79.318;2022-07-23T11:40:01;100045.59;;;16.04;68.33
64139;BME280;50435;43.700;-79.318;2022-07-23T11:42:29;100047.23;;;16.98;68.82
64139;BME280;50435;43.700;-79.318;2022-07-23T11:44:56;100042.75;;;16.38;68.89
64139;BME280;50435;43.700;-79.318;2022-07-23T11:47:26;100045.75;;;17.06;69.25
64139;BME280;50435;43.700;-79.318;2022-07-23T11:49:54;100046.89;;;17.09;68.93
64139;BME280;50435;43.700;-79.318;2022-07-23T11:52:23;100046.80;;;17.43;68.75
64139;BME280;50435;43.700;-79.318;2022-07-23T11:54:52;100042.48;;;17.66;69.28
64139;BME280;50435;43.700;-79.318;2022-07-23T11:57:24;100044.86;;;17.91;69.18
64139;BME280;50435;43.700;-79.318;2022-07-23T11:59:53;100049.27;;;17.70;69.33
64139;BME280;50435;43.700;-79.318;2022-07-23T12:02:21;100055.04;;;17.82;69.19
64139;BME280;50435;43.700;-79.318;2022-07-23T12:04:50;100056.21;;;17.59;69.08
64139;BME280;50435;43.700;-79.318;2022-07-23T12:07:28;100052.74;;;17.69;69.18
64139;BME280;50435;43.700;-79.318;2022-07-23T12:09:57;100051.09;;;17.99;69.00
64139;BME280;50435;43.700;-79.318;2022-07-23T12:12:25;100050.64;;;18.01;68.86
64139;BME280;50435;43.700;-79.318;2022-07-23T12:14:54;100051.28;;;17.81;68.74
64139;BME280;50435;43.700;-79.318;2022-07-23T12:17:28;100058.33;;;16.87;68.92
64139;BME280;50435;43.700;-79.318;2022-07-23T12:19:57;100067.46;;;16.39;68.97
64139;BME280;50435;43.700;-79.318;2022-07-23T12:22:26;100068.50;;;17.79;69.22
64139;BME280;50435;43.700;-79.318;2022-07-23T12:25:03;100067.44;;;17.99;69.28
64139;BME280;50435;43.700;-79.318;2022-07-23T12:27:32;100065.10;;;18.01;69.47
64139;BME280;50435;43.700;-79.318;2022-07-23T12:30:14;100070.74;;;18.00;69.57
64139;BME280;50435;43.700;-79.318;2022-07-23T12:32:44;100067.87;;;16.93;69.31
64139;BME280;50435;43.700;-79.318;2022-07-23T12:35:12;100073.30;;;16.60;69.84
64139;BME280;50435;43.700;-79.318;2022-07-23T12:37:42;100069.60;;;16.27;69.70
64139;BME280;50435;43.700;-79.318;2022-07-23T12:40:27;100073.10;;;16.74;69.82
64139;BME280;50435;43.700;-79.318;2022-07-23T12:42:57;100072.61;;;17.86;70.18
64139;BME280;50435;43.700;-79.318;2022-07-23T12:45:27;100058.37;;;18.36;70.19
64139;BME280;50435;43.700;-79.318;2022-07-23T12:47:58;100055.71;;;18.15;70.30
64139;BME280;50435;43.700;-79.318;2022-07-23T12:50:36;100056.89;;;18.17;70.22